Aviation Digital Data Service (ADDS)

Output produced by METARs form (1816 UTC 28 April 2015)
found at http://aviationweather.gov/adds/metars/
 
KMIV 281742Z 2818/2918 33010KT P6SM SCT050 
     FM282300 30006KT P6SM FEW050 
     FM290200 VRB03KT P6SM SKC 
     FM291400 31006KT P6SM SCT050